Статус соревнования
 
 
Когда Кто Задача Язык Вердикт Время Память
18302127 08.06.2016 19:18 KK_Mr.BEAN 1 - Отгадай число GNU C++11 Решение «зависло» на тесте 1 0 мс 0 КБ
18302126 08.06.2016 19:18 abhi2110 1 - Отгадай число GNU C++ Неправильный ответ на тесте 1 15 мс 2200 КБ
18302125 08.06.2016 19:18 cvetoslav 1 - Отгадай число GNU C++11 Неправильный ответ на тесте 1 15 мс 2000 КБ
18302124 08.06.2016 19:17 alexandru.ghergut 1 - Отгадай число GNU C++11 Неправильный ответ на тесте 1 15 мс 2000 КБ
18302123 08.06.2016 19:17 ajs97 1 - Отгадай число GNU C++ Полное решение 15 мс 2200 КБ
18302122 08.06.2016 19:17 Salama96 1 - Отгадай число GNU C++11 Превышено ограничение времени на тесте 1 1000 мс 2200 КБ
18302121 08.06.2016 19:17 Contemplator311 1 - Отгадай число GNU C++ Полное решение 15 мс 2200 КБ
18302120 08.06.2016 19:17 Renyxa 1 - Отгадай число GNU C++11 Превышено ограничение времени на тесте 1 1000 мс 2000 КБ
18302119 08.06.2016 19:17 tripPple_A 1 - Отгадай число GNU C++ Решение «зависло» на тесте 1 0 мс 0 КБ
18302118 08.06.2016 19:17 MesbahTanvir 1 - Отгадай число GNU C++11 Полное решение 15 мс 2200 КБ
18302117 08.06.2016 19:17 TouchMe 1 - Отгадай число GNU C++11 Неправильный ответ на тесте 6 15 мс 2000 КБ
18302116 08.06.2016 19:17 amand26 1 - Отгадай число GNU C++ Решение «зависло» на тесте 1 0 мс 0 КБ
18302115 08.06.2016 19:17 ankurjain 1 - Отгадай число GNU C++11 Неправильный ответ на тесте 1 0 мс 2000 КБ
18302113 08.06.2016 19:17 pashka921 1 - Отгадай число GNU C++11 Решение «зависло» на тесте 1 0 мс 0 КБ
18302112 08.06.2016 19:17 malev.alexey 1 - Отгадай число Java 8 Превышено ограничение времени на тесте 1 1000 мс 20300 КБ
18302109 08.06.2016 19:17 nickmeller 1 - Отгадай число GNU C++11 Неправильный ответ на тесте 1 0 мс 2000 КБ
18302108 08.06.2016 19:17 DeWitt 1 - Отгадай число GNU C++11 Неправильный ответ на тесте 2 0 мс 2000 КБ
18302106 08.06.2016 19:17 fr0st 1 - Отгадай число MS C# Превышено ограничение времени на тесте 1 1000 мс 11500 КБ
18302104 08.06.2016 19:17 Contemplator311 1 - Отгадай число GNU C++ Ошибка компиляции 0 мс 0 КБ
18302103 08.06.2016 19:17 SEXY_LOSER 1 - Отгадай число GNU C++11 Полное решение 15 мс 2200 КБ
18302102 08.06.2016 19:17 yash17 1 - Отгадай число Java 8 Превышено ограничение времени на тесте 2 1000 мс 20300 КБ
18302101 08.06.2016 19:17 devendra_sharma 1 - Отгадай число GNU C++ Полное решение 15 мс 2200 КБ
18302100 08.06.2016 19:17 AnonymousBunny 1 - Отгадай число GNU C++ Неправильный ответ на тесте 1 15 мс 2000 КБ
18302099 08.06.2016 19:17 Renyxa 1 - Отгадай число GNU C++11 Превышено ограничение времени на тесте 1 1000 мс 2000 КБ
18302098 08.06.2016 19:17 mehrunesartem 1 - Отгадай число GNU C++11 Полное решение 15 мс 2200 КБ
18302097 08.06.2016 19:17 Mirlan 1 - Отгадай число MS C++ Решение «зависло» на тесте 1 0 мс 0 КБ
18302095 08.06.2016 19:17 joyfun 1 - Отгадай число GNU C++11 Полное решение 15 мс 2000 КБ
18302094 08.06.2016 19:17 RohanRTiwari 1 - Отгадай число GNU C++ Полное решение 15 мс 2200 КБ
18302091 08.06.2016 19:16 tgamerz 1 - Отгадай число GNU C++11 Полное решение 15 мс 2200 КБ
18302090 08.06.2016 19:16 eat_code 1 - Отгадай число GNU C++11 Полное решение 15 мс 2200 КБ
18302088 08.06.2016 19:16 Renyxa 1 - Отгадай число GNU C++11 Превышено ограничение времени на тесте 1 1000 мс 2000 КБ
18302086 08.06.2016 19:16 Gavin0 1 - Отгадай число GNU C++ Превышено ограничение времени на тесте 2 1000 мс 2200 КБ
18302085 08.06.2016 19:16 NedoL 1 - Отгадай число GNU C++11 Полное решение 15 мс 2200 КБ
18302084 08.06.2016 19:16 omgcoin 1 - Отгадай число GNU C++11 Неправильный ответ на тесте 1 0 мс 2000 КБ
18302082 08.06.2016 19:16 wumaodang 1 - Отгадай число GNU C++ Полное решение 30 мс 2000 КБ
18302081 08.06.2016 19:16 harshasrinivas 1 - Отгадай число GNU C++ Решение «зависло» на тесте 1 0 мс 0 КБ
18302080 08.06.2016 19:16 TouchMe 1 - Отгадай число GNU C++11 Полное решение 15 мс 2200 КБ
18302078 08.06.2016 19:16 meixinyu 1 - Отгадай число GNU C++11 Неправильный ответ на тесте 4 15 мс 2000 КБ
18302077 08.06.2016 19:16 NedoL 1 - Отгадай число GNU C++11 Полное решение 15 мс 2200 КБ
18302075 08.06.2016 19:16 Atomy 1 - Отгадай число GNU C++11 Превышено ограничение времени на тесте 1 1000 мс 2000 КБ
18302073 08.06.2016 19:16 bangdang 1 - Отгадай число GNU C++11 Полное решение 15 мс 2000 КБ
18302071 08.06.2016 19:16 cvetoslav 1 - Отгадай число GNU C++11 Неправильный ответ на тесте 1 15 мс 2200 КБ
18302070 08.06.2016 19:16 Accepted-_- 1 - Отгадай число GNU C++11 Полное решение 15 мс 2000 КБ
18302068 08.06.2016 19:16 BagInCode 1 - Отгадай число GNU C++11 Решение «зависло» на тесте 1 0 мс 0 КБ
18302067 08.06.2016 19:16 meixinyu 1 - Отгадай число GNU C++11 Решение «зависло» на тесте 1 0 мс 0 КБ
18302066 08.06.2016 19:16 Ishan.nitj 1 - Отгадай число GNU C++11 Неправильный ответ на тесте 1 15 мс 2000 КБ
18302061 08.06.2016 19:16 nighthowler 1 - Отгадай число GNU C++11 Решение «зависло» на тесте 1 0 мс 0 КБ
18302060 08.06.2016 19:16 joyfun 1 - Отгадай число GNU C++11 Неправильный ответ на тесте 6 15 мс 2000 КБ
18302059 08.06.2016 19:16 Fluid 1 - Отгадай число GNU C++11 Неправильный ответ на тесте 6 0 мс 2200 КБ
18302058 08.06.2016 19:16 li924579 1 - Отгадай число GNU C++11 Полное решение 30 мс 2200 КБ
Сортировка по: